Time;durP1;ratioP1;P1;durP2;ratioP2;P2;SDS_P1;SDS_P2;PMS_P1;PMS_P2;Temp;Humidity;BMP_temperature;BMP_pressure;BME280_temperature;BME280_humidity;BME280_pressure;Samples;Min_cycle;Max_cycle;Signal;HPM_P1;HPM_P2
2021/12/07 00:04:16;;;;;;;18.52;11.90;;;2.50;99.90;;;;;;12464374;28;20573;-87
2021/12/07 00:10:19;;;;;;;20.80;12.27;;;2.50;99.90;;;;;;12476336;28;20063;-90
2021/12/07 00:16:21;;;;;;;18.02;11.70;;;2.50;99.90;;;;;;12460909;28;20057;-89
2021/12/07 00:22:23;;;;;;;15.30;10.07;;;2.50;99.90;;;;;;12461817;28;20052;-88
2021/12/07 00:28:25;;;;;;;16.92;10.63;;;2.50;99.90;;;;;;12478938;28;20055;-88
2021/12/07 00:40:37;;;;;;;15.75;10.15;;;2.60;99.90;;;;;;12485894;28;20164;-87
2021/12/07 00:46:39;;;;;;;15.45;9.85;;;2.50;99.90;;;;;;12471939;28;20105;-88
2021/12/07 00:52:41;;;;;;;15.40;9.75;;;2.50;99.90;;;;;;12466361;28;20571;-87
2021/12/07 00:58:43;;;;;;;17.92;9.48;;;2.60;99.90;;;;;;12470997;28;20050;-89
2021/12/07 01:04:52;;;;;;;18.88;9.40;;;2.60;99.90;;;;;;12464436;28;20041;-88
2021/12/07 01:30:11;;;;;;;13.70;8.65;;;2.60;99.90;;;;;;12475105;28;20049;-89
2021/12/07 01:36:39;;;;;;;14.13;9.48;;;2.70;99.90;;;;;;12459123;28;20122;-89
2021/12/07 01:43:28;;;;;;;15.90;10.15;;;2.60;99.90;;;;;;12475548;28;20052;-89
2021/12/07 01:50:05;;;;;;;16.55;10.02;;;2.40;99.90;;;;;;12481078;28;20071;-89
2021/12/07 02:02:21;;;;;;;17.75;10.75;;;2.20;99.90;;;;;;12480657;28;20077;-89
2021/12/07 02:08:24;;;;;;;19.92;11.98;;;2.00;99.90;;;;;;12464842;28;20045;-91
2021/12/07 02:14:27;;;;;;;19.77;11.48;;;1.90;99.90;;;;;;12471470;28;20069;-90
2021/12/07 02:20:31;;;;;;;22.48;12.80;;;1.70;99.90;;;;;;12490457;28;20612;-89
2021/12/07 02:26:33;;;;;;;21.63;12.03;;;1.60;99.90;;;;;;12462191;28;20132;-91
2021/12/07 02:32:39;;;;;;;22.98;12.45;;;1.60;99.90;;;;;;12470502;28;20651;-91
2021/12/07 02:38:41;;;;;;;21.70;11.82;;;1.50;99.90;;;;;;12465618;28;20440;-91
2021/12/07 02:44:46;;;;;;;20.95;12.30;;;1.60;99.90;;;;;;12481130;28;20079;-90
2021/12/07 02:50:50;;;;;;;24.33;14.25;;;1.70;99.90;;;;;;12480414;28;20212;-90
2021/12/07 02:56:53;;;;;;;24.15;14.50;;;1.70;99.90;;;;;;12460843;28;20092;-90
2021/12/07 03:03:01;;;;;;;25.90;14.20;;;1.80;99.90;;;;;;12458136;28;20872;-92
2021/12/07 03:28:21;;;;;;;21.83;14.05;;;1.80;99.90;;;;;;12480418;28;20088;-92
2021/12/07 03:34:23;;;;;;;23.38;13.32;;;1.80;99.90;;;;;;12459340;28;20549;-91
2021/12/07 03:40:27;;;;;;;22.77;14.05;;;1.80;99.90;;;;;;12456941;28;20140;-90
2021/12/07 03:46:33;;;;;;;24.50;14.45;;;1.80;99.90;;;;;;12477818;28;20045;-92
2021/12/07 03:52:35;;;;;;;24.88;14.10;;;1.80;99.90;;;;;;12475789;28;20044;-92
2021/12/07 03:58:44;;;;;;;22.92;13.75;;;1.80;99.90;;;;;;12461973;28;20504;-90
2021/12/07 04:04:46;;;;;;;21.50;13.95;;;1.80;99.90;;;;;;12469770;28;20045;-92
2021/12/07 04:10:53;;;;;;;24.08;13.88;;;1.70;99.90;;;;;;12461587;28;20520;-91
2021/12/07 04:16:55;;;;;;;22.95;12.93;;;1.80;99.90;;;;;;12456400;28;20056;-92
2021/12/07 04:22:57;;;;;;;19.33;13.00;;;1.80;99.90;;;;;;12451052;28;20115;-91
2021/12/07 04:29:10;;;;;;;21.02;13.05;;;1.80;99.90;;;;;;12451473;28;20052;-91
2021/12/07 04:35:15;;;;;;;21.52;13.52;;;1.80;99.90;;;;;;12449271;28;20076;-91
2021/12/07 04:41:22;;;;;;;19.88;12.77;;;1.80;99.90;;;;;;12469748;28;20061;-91
2021/12/07 05:00:13;;;;;;;27.63;14.15;;;1.90;99.90;;;;;;12419351;28;20135;-91
2021/12/07 05:06:16;;;;;;;24.38;14.65;;;1.90;99.90;;;;;;12407063;28;20550;-91
2021/12/07 05:18:54;;;;;;;21.08;12.55;;;1.90;99.90;;;;;;12448344;28;20144;-91
2021/12/07 05:43:40;;;;;;;22.00;14.32;;;2.00;99.90;;;;;;12430148;28;20141;-90
2021/12/07 05:49:43;;;;;;;21.67;14.43;;;2.00;99.90;;;;;;12453944;28;20081;-90
2021/12/07 05:55:45;;;;;;;22.13;14.25;;;2.00;99.90;;;;;;12452329;28;20619;-90
2021/12/07 06:01:47;;;;;;;22.85;14.27;;;2.10;99.90;;;;;;12446578;28;20053;-90
2021/12/07 06:07:50;;;;;;;23.33;15.20;;;2.00;99.90;;;;;;12455529;28;20069;-91
2021/12/07 06:13:52;;;;;;;23.83;13.90;;;2.10;99.90;;;;;;12462794;28;20577;-92
2021/12/07 06:19:54;;;;;;;25.77;15.35;;;2.10;99.90;;;;;;12472690;28;20054;-91
2021/12/07 06:25:58;;;;;;;25.33;16.35;;;2.10;99.90;;;;;;12460371;28;20464;-91
2021/12/07 06:32:00;;;;;;;25.08;15.70;;;2.10;99.90;;;;;;12482619;28;20080;-91
2021/12/07 06:38:01;;;;;;;23.85;15.10;;;2.10;99.90;;;;;;12462657;28;20168;-90
2021/12/07 06:44:04;;;;;;;25.27;16.17;;;2.10;99.90;;;;;;12467067;28;20160;-91
2021/12/07 06:50:10;;;;;;;26.10;15.55;;;2.10;99.90;;;;;;12475289;28;20172;-91
2021/12/07 06:56:12;;;;;;;26.38;16.42;;;2.10;99.90;;;;;;12460207;28;20038;-90
2021/12/07 07:02:15;;;;;;;25.08;15.68;;;2.10;99.90;;;;;;12469669;28;20068;-91
2021/12/07 07:08:17;;;;;;;24.88;15.02;;;2.10;99.90;;;;;;12469656;28;20067;-91
2021/12/07 07:14:19;;;;;;;26.70;15.85;;;2.10;99.90;;;;;;12471626;28;20057;-91
2021/12/07 07:20:22;;;;;;;28.77;15.88;;;2.10;99.90;;;;;;12483438;28;20053;-90
2021/12/07 07:26:24;;;;;;;25.75;14.98;;;2.10;99.90;;;;;;12455896;28;20053;-91
2021/12/07 07:32:26;;;;;;;28.90;16.00;;;2.10;99.90;;;;;;12457303;28;20562;-91
2021/12/07 07:38:28;;;;;;;28.85;15.57;;;2.20;99.90;;;;;;12468037;28;20057;-91
2021/12/07 07:44:30;;;;;;;32.58;16.95;;;2.20;99.90;;;;;;12451006;28;20505;-92
2021/12/07 07:50:34;;;;;;;31.02;17.38;;;2.30;99.90;;;;;;12469264;28;20077;-90
2021/12/07 07:56:37;;;;;;;32.58;16.83;;;2.20;99.90;;;;;;12475918;28;20532;-90
2021/12/07 08:02:39;;;;;;;38.33;18.60;;;2.20;99.90;;;;;;12446325;28;20045;-91
2021/12/07 08:08:42;;;;;;;37.97;18.30;;;2.20;99.90;;;;;;12466871;28;20049;-91
2021/12/07 08:14:44;;;;;;;40.22;18.00;;;2.20;99.90;;;;;;12460604;28;20037;-90
2021/12/07 08:20:46;;;;;;;41.35;18.90;;;2.20;99.90;;;;;;12478499;28;20135;-91
2021/12/07 08:26:48;;;;;;;43.47;20.38;;;2.20;99.90;;;;;;12470068;28;20172;-91
2021/12/07 08:32:50;;;;;;;44.40;20.70;;;2.30;99.90;;;;;;12468803;28;20105;-91
2021/12/07 08:38:53;;;;;;;49.20;21.90;;;2.40;99.90;;;;;;12450053;28;20103;-91
2021/12/07 08:44:55;;;;;;;50.85;22.27;;;2.30;99.90;;;;;;12450695;28;20577;-91
2021/12/07 08:50:57;;;;;;;45.10;21.05;;;2.40;99.90;;;;;;12414393;28;20375;-91
2021/12/07 09:03:21;;;;;;;46.13;20.48;;;2.50;99.90;;;;;;12419762;28;21386;-92
2021/12/07 09:09:23;;;;;;;51.75;22.83;;;2.50;99.90;;;;;;12423212;28;20060;-90
2021/12/07 09:15:26;;;;;;;44.97;19.70;;;2.50;99.90;;;;;;12418332;28;20089;-92
2021/12/07 09:21:28;;;;;;;46.95;21.00;;;2.60;99.90;;;;;;12415645;28;20053;-91
2021/12/07 09:27:30;;;;;;;50.22;21.65;;;2.60;99.90;;;;;;12424681;28;20627;-91
2021/12/07 09:33:40;;;;;;;49.35;21.30;;;2.70;99.90;;;;;;12418860;28;20046;-91
2021/12/07 09:39:43;;;;;;;53.08;22.15;;;2.80;99.90;;;;;;12416022;28;20057;-91
2021/12/07 09:45:45;;;;;;;40.97;19.92;;;2.80;99.90;;;;;;12418921;28;20156;-91
2021/12/07 09:51:48;;;;;;;47.63;21.00;;;2.90;99.90;;;;;;12421650;28;20042;-90
2021/12/07 09:57:50;;;;;;;46.22;23.17;;;3.10;99.90;;;;;;12428534;28;20509;-91
2021/12/07 10:03:52;;;;;;;43.78;19.27;;;3.20;99.90;;;;;;12421526;28;20132;-92
2021/12/07 10:09:55;;;;;;;35.83;17.92;;;3.20;99.90;;;;;;12432766;28;20349;-91
2021/12/07 10:16:00;;;;;;;45.58;17.65;;;3.30;99.90;;;;;;12430037;28;20100;-90
2021/12/07 10:22:10;;;;;;;36.30;17.65;;;3.30;99.90;;;;;;12423473;28;20051;-91
2021/12/07 10:28:24;;;;;;;36.00;18.42;;;3.50;99.90;;;;;;12440014;28;20137;-91
2021/12/07 10:34:34;;;;;;;32.83;16.80;;;3.60;99.90;;;;;;12423021;28;21473;-91
2021/12/07 10:40:57;;;;;;;35.47;15.98;;;3.80;99.90;;;;;;12425566;28;20071;-91
2021/12/07 10:47:10;;;;;;;31.00;15.00;;;3.90;99.90;;;;;;12431290;28;20508;-92
2021/12/07 10:53:13;;;;;;;34.47;17.50;;;4.00;99.90;;;;;;12454979;28;20547;-91
2021/12/07 10:59:16;;;;;;;33.58;16.60;;;3.90;99.90;;;;;;12467254;28;20049;-91
2021/12/07 11:05:26;;;;;;;28.08;14.05;;;3.80;99.90;;;;;;12500117;28;20071;-91
2021/12/07 11:11:28;;;;;;;35.67;14.18;;;3.80;99.90;;;;;;12461486;28;20231;-91
2021/12/07 11:17:35;;;;;;;27.27;14.45;;;3.70;99.90;;;;;;12458119;28;20425;-92
2021/12/07 11:23:44;;;;;;;35.28;15.73;;;3.70;99.90;;;;;;12450311;28;20050;-92
2021/12/07 11:29:48;;;;;;;33.05;15.85;;;3.70;99.90;;;;;;12455589;28;20061;-91
2021/12/07 11:35:50;;;;;;;41.33;16.05;;;3.70;99.90;;;;;;12453321;28;20053;-91
2021/12/07 11:42:08;;;;;;;32.85;15.23;;;3.70;99.90;;;;;;12455621;28;20056;-92
2021/12/07 11:48:11;;;;;;;35.40;16.02;;;3.70;99.90;;;;;;12461554;28;20095;-91
2021/12/07 11:54:22;;;;;;;41.47;16.70;;;3.80;99.90;;;;;;12456423;28;21037;-91
2021/12/07 12:00:35;;;;;;;35.40;16.05;;;3.70;99.90;;;;;;12446163;28;20144;-89
2021/12/07 12:06:42;;;;;;;38.78;16.27;;;3.70;99.90;;;;;;12485486;28;20049;-90
2021/12/07 12:13:09;;;;;;;38.88;16.33;;;3.70;99.90;;;;;;12455951;28;20041;-91
2021/12/07 12:19:30;;;;;;;36.45;18.05;;;3.70;99.90;;;;;;12490158;28;20451;-91
2021/12/07 12:25:34;;;;;;;40.63;18.92;;;3.80;99.90;;;;;;12471935;28;20675;-90
2021/12/07 12:31:49;;;;;;;48.80;22.10;;;3.80;99.90;;;;;;12466581;28;20128;-91
2021/12/07 12:37:55;;;;;;;48.90;23.65;;;3.90;99.90;;;;;;12457641;28;20053;-90
2021/12/07 12:44:07;;;;;;;48.35;26.23;;;4.00;99.90;;;;;;12455031;28;20174;-91
2021/12/07 12:50:13;;;;;;;52.03;25.70;;;4.10;99.90;;;;;;12459173;28;20570;-90
2021/12/07 12:56:18;;;;;;;52.05;25.95;;;4.10;99.90;;;;;;12485865;28;20577;-90
2021/12/07 13:02:20;;;;;;;;;;;4.20;99.90;;;;;;12464782;28;20048;-89
2021/12/07 13:08:22;;;;;;;58.67;29.17;;;4.20;99.90;;;;;;12479846;28;19925;-90
2021/12/07 13:14:24;;;;;;;49.38;28.00;;;4.10;99.90;;;;;;12484583;28;20468;-91
2021/12/07 13:20:31;;;;;;;59.05;29.52;;;4.10;99.90;;;;;;12475029;28;20061;-91
2021/12/07 13:26:39;;;;;;;56.50;28.33;;;4.20;99.90;;;;;;12469486;28;20132;-91
2021/12/07 13:33:11;;;;;;;64.03;28.27;;;4.20;99.90;;;;;;12456897;28;20045;-91
2021/12/07 13:39:13;;;;;;;62.40;28.02;;;4.40;99.90;;;;;;12458428;28;20057;-90
2021/12/07 13:45:22;;;;;;;46.88;25.90;;;4.40;99.90;;;;;;12460257;28;20067;-90
2021/12/07 13:51:24;;;;;;;47.50;24.38;;;4.40;99.90;;;;;;12465342;28;20525;-90
2021/12/07 13:57:35;;;;;;;49.50;24.02;;;4.40;99.90;;;;;;12461667;28;20050;-91
2021/12/07 14:03:43;;;;;;;48.85;22.35;;;4.40;99.90;;;;;;12462349;28;20051;-90
2021/12/07 14:09:45;;;;;;;43.15;23.38;;;4.30;99.90;;;;;;12458856;28;20122;-90
2021/12/07 14:15:50;;;;;;;47.38;23.90;;;4.40;99.90;;;;;;12450703;28;21203;-91
2021/12/07 14:21:52;;;;;;;;;;;4.40;99.90;;;;;;12461831;28;20403;-91
2021/12/07 14:27:56;;;;;;;39.45;20.38;;;4.40;99.90;;;;;;12471385;28;19928;-90
2021/12/07 14:34:01;;;;;;;36.90;18.48;;;4.40;99.90;;;;;;12457131;28;20053;-91
2021/12/07 14:40:06;;;;;;;39.83;18.17;;;4.20;99.90;;;;;;12458271;28;20063;-91
2021/12/07 14:46:09;;;;;;;;;;;4.10;99.90;;;;;;12453173;28;20060;-92
2021/12/07 14:52:14;;;;;;;33.95;16.10;;;3.80;99.90;;;;;;12454194;28;19929;-91
2021/12/07 14:58:16;;;;;;;25.88;15.73;;;3.60;99.90;;;;;;12463480;28;20104;-91
2021/12/07 15:04:19;;;;;;;36.78;16.80;;;3.40;99.90;;;;;;12451797;28;20049;-91
2021/12/07 15:10:21;;;;;;;33.53;16.98;;;3.30;99.90;;;;;;12470563;28;20050;-91
2021/12/07 15:16:24;;;;;;;33.65;16.92;;;3.20;99.90;;;;;;12453437;28;20049;-91
2021/12/07 15:22:27;;;;;;;26.75;13.85;;;3.00;99.90;;;;;;12454552;28;20167;-92
2021/12/07 15:28:31;;;;;;;30.55;14.35;;;3.00;99.90;;;;;;12463531;28;20635;-90
2021/12/07 15:34:41;;;;;;;30.83;14.82;;;2.90;99.90;;;;;;12453267;28;20136;-91
2021/12/07 15:40:45;;;;;;;34.40;15.00;;;2.80;99.90;;;;;;12450973;28;20331;-91
2021/12/07 15:46:52;;;;;;;31.08;16.35;;;2.90;99.90;;;;;;12446205;28;20054;-91
2021/12/07 15:53:07;;;;;;;35.95;15.02;;;3.00;99.90;;;;;;12452092;28;20045;-92
2021/12/07 15:59:14;;;;;;;30.30;13.83;;;3.10;99.90;;;;;;12459050;28;20469;-91
2021/12/07 16:05:17;;;;;;;36.63;14.23;;;3.30;99.90;;;;;;12447954;28;20049;-92
2021/12/07 16:11:21;;;;;;;31.17;13.07;;;3.30;99.90;;;;;;12455763;28;20430;-91
2021/12/07 16:17:23;;;;;;;30.25;11.73;;;3.30;99.90;;;;;;12442373;28;20126;-91
2021/12/07 16:23:27;;;;;;;32.55;13.00;;;3.10;99.90;;;;;;12468291;28;20111;-91
2021/12/07 16:29:29;;;;;;;23.43;11.57;;;3.20;99.90;;;;;;12473477;28;20045;-91
2021/12/07 16:35:32;;;;;;;25.25;12.18;;;3.10;99.90;;;;;;12447632;28;20076;-91
2021/12/07 16:41:34;;;;;;;20.10;9.77;;;3.00;99.90;;;;;;12452566;28;20083;-91
2021/12/07 16:47:37;;;;;;;16.27;9.30;;;2.90;99.90;;;;;;12451493;28;20057;-91
2021/12/07 16:53:40;;;;;;;21.38;8.82;;;2.80;99.90;;;;;;12452411;28;20177;-90
2021/12/07 16:59:42;;;;;;;16.95;9.10;;;2.70;99.90;;;;;;12455110;28;20075;-90
2021/12/07 17:05:48;;;;;;;18.00;8.70;;;2.60;99.90;;;;;;12453401;28;20042;-91
2021/12/07 17:11:50;;;;;;;16.17;8.07;;;2.50;99.90;;;;;;12448624;28;20075;-90
2021/12/07 17:17:52;;;;;;;17.08;7.38;;;2.50;99.90;;;;;;12449825;28;20207;-90
2021/12/07 17:23:55;;;;;;;15.73;7.57;;;2.70;99.90;;;;;;12454821;28;20399;-90
2021/12/07 17:29:59;;;;;;;12.80;7.80;;;2.70;99.90;;;;;;12455127;28;20145;-89
2021/12/07 17:36:02;;;;;;;17.10;7.72;;;2.70;99.90;;;;;;12451653;28;20457;-90
2021/12/07 17:42:04;;;;;;;15.07;7.60;;;2.70;99.90;;;;;;12455909;28;20386;-90
2021/12/07 17:48:07;;;;;;;16.60;7.43;;;2.60;99.90;;;;;;12448305;28;20060;-91
2021/12/07 17:54:10;;;;;;;15.75;7.40;;;2.50;99.90;;;;;;12454615;28;20057;-89
2021/12/07 18:00:16;;;;;;;14.05;6.95;;;2.60;99.90;;;;;;12451877;28;20054;-89
2021/12/07 18:06:18;;;;;;;14.70;6.97;;;2.60;99.90;;;;;;12452551;28;20049;-89
2021/12/07 18:12:21;;;;;;;15.50;6.95;;;2.60;99.90;;;;;;12459424;28;20049;-89
2021/12/07 18:18:42;;;;;;;13.80;6.55;;;2.60;99.90;;;;;;12455504;28;20049;-90
2021/12/07 18:24:45;;;;;;;12.52;6.93;;;2.70;99.90;;;;;;12465483;28;20107;-90
2021/12/07 18:31:04;;;;;;;15.85;6.13;;;2.60;99.90;;;;;;12463817;28;20060;-90
2021/12/07 18:37:06;;;;;;;16.83;6.47;;;2.50;99.90;;;;;;12464034;28;20052;-90
2021/12/07 18:43:08;;;;;;;13.02;5.78;;;2.50;99.90;;;;;;12452382;28;20172;-89
2021/12/07 18:49:11;;;;;;;12.48;5.65;;;2.50;99.90;;;;;;12473802;28;20947;-89
2021/12/07 18:55:15;;;;;;;10.30;5.45;;;2.40;99.90;;;;;;12449642;28;20091;-89
2021/12/07 19:01:18;;;;;;;12.13;5.00;;;2.30;99.90;;;;;;12465372;28;20562;-90
2021/12/07 19:07:21;;;;;;;13.68;4.50;;;2.40;99.90;;;;;;12452053;28;20462;-89
2021/12/07 19:13:24;;;;;;;14.32;4.43;;;2.50;99.90;;;;;;12453209;28;20663;-87
2021/12/07 19:19:26;;;;;;;14.05;4.28;;;2.50;99.90;;;;;;12454607;28;20971;-88
2021/12/07 19:25:29;;;;;;;11.05;4.32;;;2.60;99.90;;;;;;12467556;28;20448;-88
2021/12/07 19:31:31;;;;;;;9.52;4.13;;;2.50;99.90;;;;;;12457619;28;20052;-90
2021/12/07 19:37:36;;;;;;;9.13;4.65;;;2.50;99.90;;;;;;12453419;28;20057;-88
2021/12/07 19:43:38;;;;;;;15.10;5.47;;;2.50;99.90;;;;;;12452986;28;20053;-89
2021/12/07 19:49:41;;;;;;;11.07;4.25;;;2.50;99.90;;;;;;12472853;28;20498;-89
2021/12/07 19:55:44;;;;;;;12.05;4.32;;;2.50;99.90;;;;;;12448322;28;20488;-89
2021/12/07 20:01:48;;;;;;;11.13;4.65;;;2.50;99.90;;;;;;12451151;28;20049;-87
2021/12/07 20:07:52;;;;;;;14.05;4.30;;;2.50;99.90;;;;;;12450240;28;20505;-88
2021/12/07 20:13:55;;;;;;;10.23;4.05;;;2.50;99.90;;;;;;12446427;28;20449;-87
2021/12/07 20:19:58;;;;;;;9.90;4.00;;;2.60;99.90;;;;;;12445161;28;20458;-88
2021/12/07 20:26:00;;;;;;;20.10;4.47;;;2.50;99.90;;;;;;12450488;28;20589;-88
2021/12/07 20:32:05;;;;;;;11.38;5.25;;;2.60;99.90;;;;;;12467131;28;20049;-90
2021/12/07 20:38:08;;;;;;;10.23;4.25;;;2.50;99.90;;;;;;12455382;28;20064;-90
2021/12/07 20:44:13;;;;;;;12.07;4.38;;;2.50;99.90;;;;;;12451482;28;20049;-88
2021/12/07 20:50:17;;;;;;;10.02;3.85;;;2.40;99.90;;;;;;12450167;28;20462;-89
2021/12/07 20:56:19;;;;;;;12.60;4.95;;;2.40;99.90;;;;;;12447313;28;20059;-89
2021/12/07 21:02:43;;;;;;;10.35;3.83;;;2.40;99.90;;;;;;12451122;28;20079;-87
2021/12/07 21:08:45;;;;;;;18.50;4.17;;;2.30;99.90;;;;;;12454540;28;20131;-87
2021/12/07 21:14:47;;;;;;;8.98;3.42;;;2.30;99.90;;;;;;12451534;28;20050;-87
2021/12/07 21:20:52;;;;;;;8.55;3.17;;;2.30;99.90;;;;;;12448145;28;20080;-88
2021/12/07 21:26:54;;;;;;;9.70;2.97;;;2.40;99.90;;;;;;12452729;28;20080;-87
2021/12/07 21:32:56;;;;;;;11.27;2.97;;;2.60;99.90;;;;;;12461191;28;20052;-90
2021/12/07 21:38:58;;;;;;;7.10;3.00;;;2.60;99.90;;;;;;12456438;28;21119;-84
2021/12/07 21:45:00;;;;;;;6.50;2.45;;;2.60;99.90;;;;;;12451296;28;20128;-87
2021/12/07 21:51:03;;;;;;;7.13;2.53;;;2.60;99.90;;;;;;12419531;28;20050;-89
2021/12/07 21:57:05;;;;;;;8.10;2.50;;;2.50;99.90;;;;;;12425169;28;20049;-87
2021/12/07 22:03:09;;;;;;;8.35;2.05;;;2.50;99.90;;;;;;12422077;28;20083;-87
2021/12/07 22:09:11;;;;;;;9.23;1.73;;;2.70;99.90;;;;;;12440261;28;20386;-88
2021/12/07 22:15:14;;;;;;;7.50;2.33;;;2.80;99.90;;;;;;12417961;28;20459;-85
2021/12/07 22:21:16;;;;;;;9.55;2.13;;;2.90;99.90;;;;;;12426832;28;20458;-88
2021/12/07 22:27:18;;;;;;;6.45;1.90;;;3.00;99.90;;;;;;12453546;28;20050;-91
2021/12/07 22:33:21;;;;;;;6.28;1.90;;;3.00;99.90;;;;;;12456382;28;20053;-87
2021/12/07 22:39:23;;;;;;;9.68;2.13;;;3.00;99.90;;;;;;12435103;28;20102;-87
2021/12/07 22:45:25;;;;;;;8.15;1.98;;;3.00;99.90;;;;;;12428210;28;20103;-86
2021/12/07 22:51:26;;;;;;;6.22;1.75;;;3.00;99.90;;;;;;12458147;28;20056;-86
2021/12/07 22:57:29;;;;;;;8.00;1.75;;;3.10;99.90;;;;;;12462063;28;20053;-87
2021/12/07 23:03:33;;;;;;;3.72;1.38;;;3.00;99.90;;;;;;12472837;28;20137;-87
2021/12/07 23:09:38;;;;;;;7.38;1.48;;;3.10;99.90;;;;;;12465040;28;20048;-89
2021/12/07 23:15:43;;;;;;;6.10;1.48;;;3.10;99.90;;;;;;12457073;28;20365;-88
2021/12/07 23:21:45;;;;;;;5.22;1.30;;;3.30;99.90;;;;;;12460864;28;20049;-88
2021/12/07 23:27:47;;;;;;;5.70;1.10;;;3.30;99.90;;;;;;12478504;28;20139;-88
2021/12/07 23:33:49;;;;;;;3.90;1.30;;;3.20;99.90;;;;;;12450936;28;20060;-89
2021/12/07 23:39:51;;;;;;;6.72;1.55;;;3.00;99.90;;;;;;12460202;28;20057;-88
2021/12/07 23:45:53;;;;;;;5.43;1.50;;;3.00;99.90;;;;;;12454671;28;20099;-87
2021/12/07 23:51:55;;;;;;;5.85;1.77;;;3.00;99.90;;;;;;12460150;28;20059;-87
2021/12/07 23:57:58;;;;;;;5.60;1.30;;;2.90;99.90;;;;;;12457642;28;20140;-87
